sensor_id;sensor_type;location;lat;lon;timestamp;P1;durP1;ratioP1;P2;durP2;ratioP2
5754;SDS011;2902;42.130;24.732;2024-03-08T00:02:34;29.03;;;19.17;;
5754;SDS011;2902;42.130;24.732;2024-03-08T00:05:01;28.57;;;19.63;;
5754;SDS011;2902;42.130;24.732;2024-03-08T00:07:30;32.50;;;20.47;;
5754;SDS011;2902;42.130;24.732;2024-03-08T00:09:56;29.27;;;19.40;;
5754;SDS011;2902;42.130;24.732;2024-03-08T00:12:23;26.30;;;19.73;;
5754;SDS011;2902;42.130;24.732;2024-03-08T00:14:52;27.43;;;18.33;;
5754;SDS011;2902;42.130;24.732;2024-03-08T00:17:19;30.73;;;19.40;;
5754;SDS011;2902;42.130;24.732;2024-03-08T00:19:47;29.97;;;20.00;;
5754;SDS011;2902;42.130;24.732;2024-03-08T00:22:14;29.07;;;20.47;;
5754;SDS011;2902;42.130;24.732;2024-03-08T00:24:43;25.47;;;20.30;;
5754;SDS011;2902;42.130;24.732;2024-03-08T00:27:10;24.87;;;18.43;;
5754;SDS011;2902;42.130;24.732;2024-03-08T00:29:37;31.40;;;20.33;;
5754;SDS011;2902;42.130;24.732;2024-03-08T00:32:05;25.40;;;19.40;;
5754;SDS011;2902;42.130;24.732;2024-03-08T00:34:32;28.73;;;18.87;;
5754;SDS011;2902;42.130;24.732;2024-03-08T00:37:02;27.93;;;20.30;;
5754;SDS011;2902;42.130;24.732;2024-03-08T00:39:29;30.77;;;20.00;;
5754;SDS011;2902;42.130;24.732;2024-03-08T00:41:57;28.00;;;19.40;;
5754;SDS011;2902;42.130;24.732;2024-03-08T00:44:23;27.67;;;20.40;;
5754;SDS011;2902;42.130;24.732;2024-03-08T00:46:50;29.97;;;20.20;;
5754;SDS011;2902;42.130;24.732;2024-03-08T00:49:17;24.50;;;18.83;;
5754;SDS011;2902;42.130;24.732;2024-03-08T00:51:44;27.17;;;19.07;;
5754;SDS011;2902;42.130;24.732;2024-03-08T00:54:10;26.37;;;18.70;;
5754;SDS011;2902;42.130;24.732;2024-03-08T00:56:37;29.10;;;18.93;;
5754;SDS011;2902;42.130;24.732;2024-03-08T00:59:05;28.03;;;19.43;;
5754;SDS011;2902;42.130;24.732;2024-03-08T01:01:33;25.07;;;18.30;;
5754;SDS011;2902;42.130;24.732;2024-03-08T01:04:00;26.13;;;18.77;;
5754;SDS011;2902;42.130;24.732;2024-03-08T01:06:27;31.07;;;19.83;;
5754;SDS011;2902;42.130;24.732;2024-03-08T01:08:53;31.00;;;19.63;;
5754;SDS011;2902;42.130;24.732;2024-03-08T01:11:20;28.90;;;19.87;;
5754;SDS011;2902;42.130;24.732;2024-03-08T01:13:47;31.37;;;20.87;;
5754;SDS011;2902;42.130;24.732;2024-03-08T01:16:16;28.87;;;20.00;;
5754;SDS011;2902;42.130;24.732;2024-03-08T01:18:43;31.90;;;20.23;;
5754;SDS011;2902;42.130;24.732;2024-03-08T01:21:10;28.97;;;20.23;;
5754;SDS011;2902;42.130;24.732;2024-03-08T01:23:37;27.40;;;19.77;;
5754;SDS011;2902;42.130;24.732;2024-03-08T01:26:03;31.97;;;20.20;;
5754;SDS011;2902;42.130;24.732;2024-03-08T01:28:31;29.27;;;20.23;;
5754;SDS011;2902;42.130;24.732;2024-03-08T01:30:59;31.13;;;20.47;;
5754;SDS011;2902;42.130;24.732;2024-03-08T01:33:27;31.47;;;20.73;;
5754;SDS011;2902;42.130;24.732;2024-03-08T01:35:55;25.17;;;18.77;;
5754;SDS011;2902;42.130;24.732;2024-03-08T01:38:22;30.03;;;19.20;;
5754;SDS011;2902;42.130;24.732;2024-03-08T01:40:49;26.17;;;18.67;;
5754;SDS011;2902;42.130;24.732;2024-03-08T01:45:44;23.40;;;18.03;;
5754;SDS011;2902;42.130;24.732;2024-03-08T01:48:11;23.90;;;19.40;;
5754;SDS011;2902;42.130;24.732;2024-03-08T01:50:41;22.83;;;18.30;;
5754;SDS011;2902;42.130;24.732;2024-03-08T01:53:08;26.53;;;18.93;;
5754;SDS011;2902;42.130;24.732;2024-03-08T01:55:36;26.53;;;19.90;;
5754;SDS011;2902;42.130;24.732;2024-03-08T01:58:04;24.43;;;19.43;;
5754;SDS011;2902;42.130;24.732;2024-03-08T02:00:32;34.27;;;21.23;;
5754;SDS011;2902;42.130;24.732;2024-03-08T02:02:59;27.23;;;19.93;;
5754;SDS011;2902;42.130;24.732;2024-03-08T02:05:27;31.17;;;20.73;;
5754;SDS011;2902;42.130;24.732;2024-03-08T02:07:55;25.90;;;20.07;;
5754;SDS011;2902;42.130;24.732;2024-03-08T02:10:22;26.77;;;20.53;;
5754;SDS011;2902;42.130;24.732;2024-03-08T02:12:49;26.57;;;19.90;;
5754;SDS011;2902;42.130;24.732;2024-03-08T02:15:16;27.53;;;19.93;;
5754;SDS011;2902;42.130;24.732;2024-03-08T02:17:44;26.57;;;18.30;;
5754;SDS011;2902;42.130;24.732;2024-03-08T02:20:11;29.70;;;20.00;;
5754;SDS011;2902;42.130;24.732;2024-03-08T02:22:40;27.73;;;19.00;;
5754;SDS011;2902;42.130;24.732;2024-03-08T02:25:08;25.83;;;18.80;;
5754;SDS011;2902;42.130;24.732;2024-03-08T02:27:35;32.00;;;19.40;;
5754;SDS011;2902;42.130;24.732;2024-03-08T02:30:03;24.80;;;19.33;;
5754;SDS011;2902;42.130;24.732;2024-03-08T02:32:30;24.37;;;17.47;;
5754;SDS011;2902;42.130;24.732;2024-03-08T02:34:57;25.83;;;17.93;;
5754;SDS011;2902;42.130;24.732;2024-03-08T02:37:25;23.83;;;18.33;;
5754;SDS011;2902;42.130;24.732;2024-03-08T02:39:54;29.50;;;18.90;;
5754;SDS011;2902;42.130;24.732;2024-03-08T02:42:21;25.07;;;18.53;;
5754;SDS011;2902;42.130;24.732;2024-03-08T02:44:48;22.17;;;18.13;;
5754;SDS011;2902;42.130;24.732;2024-03-08T02:47:15;22.93;;;16.73;;
5754;SDS011;2902;42.130;24.732;2024-03-08T02:49:41;24.20;;;17.97;;
5754;SDS011;2902;42.130;24.732;2024-03-08T02:52:08;20.90;;;16.97;;
5754;SDS011;2902;42.130;24.732;2024-03-08T02:54:35;22.07;;;17.00;;
5754;SDS011;2902;42.130;24.732;2024-03-08T02:57:03;23.03;;;16.23;;
5754;SDS011;2902;42.130;24.732;2024-03-08T02:59:32;23.80;;;16.47;;
5754;SDS011;2902;42.130;24.732;2024-03-08T03:01:59;21.03;;;16.13;;
5754;SDS011;2902;42.130;24.732;2024-03-08T03:04:26;24.93;;;17.47;;
5754;SDS011;2902;42.130;24.732;2024-03-08T03:06:53;22.67;;;17.80;;
5754;SDS011;2902;42.130;24.732;2024-03-08T03:09:20;19.00;;;15.97;;
5754;SDS011;2902;42.130;24.732;2024-03-08T03:11:52;26.93;;;17.37;;
5754;SDS011;2902;42.130;24.732;2024-03-08T03:14:21;21.90;;;17.90;;
5754;SDS011;2902;42.130;24.732;2024-03-08T03:16:48;22.30;;;17.90;;
5754;SDS011;2902;42.130;24.732;2024-03-08T03:19:15;21.60;;;17.00;;
5754;SDS011;2902;42.130;24.732;2024-03-08T03:21:42;23.03;;;18.03;;
5754;SDS011;2902;42.130;24.732;2024-03-08T03:24:09;24.37;;;17.30;;
5754;SDS011;2902;42.130;24.732;2024-03-08T03:26:36;25.47;;;18.47;;
5754;SDS011;2902;42.130;24.732;2024-03-08T03:29:04;25.47;;;17.87;;
5754;SDS011;2902;42.130;24.732;2024-03-08T03:31:32;23.67;;;18.33;;
5754;SDS011;2902;42.130;24.732;2024-03-08T03:33:59;22.40;;;17.80;;
5754;SDS011;2902;42.130;24.732;2024-03-08T03:36:28;28.57;;;18.77;;
5754;SDS011;2902;42.130;24.732;2024-03-08T03:38:54;23.30;;;17.40;;
5754;SDS011;2902;42.130;24.732;2024-03-08T03:41:30;21.73;;;18.37;;
5754;SDS011;2902;42.130;24.732;2024-03-08T03:43:57;25.70;;;18.13;;
5754;SDS011;2902;42.130;24.732;2024-03-08T03:46:24;22.73;;;18.13;;
5754;SDS011;2902;42.130;24.732;2024-03-08T03:48:53;26.20;;;19.00;;
5754;SDS011;2902;42.130;24.732;2024-03-08T03:51:20;25.93;;;19.23;;
5754;SDS011;2902;42.130;24.732;2024-03-08T03:53:47;25.87;;;19.80;;
5754;SDS011;2902;42.130;24.732;2024-03-08T03:56:14;22.70;;;17.87;;
5754;SDS011;2902;42.130;24.732;2024-03-08T03:58:41;26.30;;;18.37;;
5754;SDS011;2902;42.130;24.732;2024-03-08T04:01:07;27.93;;;18.67;;
5754;SDS011;2902;42.130;24.732;2024-03-08T04:03:34;25.80;;;19.00;;
5754;SDS011;2902;42.130;24.732;2024-03-08T04:06:03;25.50;;;18.20;;
5754;SDS011;2902;42.130;24.732;2024-03-08T04:08:30;27.60;;;20.00;;
5754;SDS011;2902;42.130;24.732;2024-03-08T04:10:59;29.03;;;20.13;;
5754;SDS011;2902;42.130;24.732;2024-03-08T04:13:26;28.50;;;18.97;;
5754;SDS011;2902;42.130;24.732;2024-03-08T04:15:53;28.83;;;20.47;;
5754;SDS011;2902;42.130;24.732;2024-03-08T04:18:20;35.17;;;22.17;;
5754;SDS011;2902;42.130;24.732;2024-03-08T04:20:46;30.93;;;21.20;;
5754;SDS011;2902;42.130;24.732;2024-03-08T04:23:15;28.27;;;18.60;;
5754;SDS011;2902;42.130;24.732;2024-03-08T04:25:43;33.73;;;22.40;;
5754;SDS011;2902;42.130;24.732;2024-03-08T04:28:09;32.87;;;19.77;;
5754;SDS011;2902;42.130;24.732;2024-03-08T04:30:37;30.77;;;20.77;;
5754;SDS011;2902;42.130;24.732;2024-03-08T04:33:04;34.17;;;22.53;;
5754;SDS011;2902;42.130;24.732;2024-03-08T04:35:32;33.13;;;20.73;;
5754;SDS011;2902;42.130;24.732;2024-03-08T04:37:59;26.63;;;19.23;;
5754;SDS011;2902;42.130;24.732;2024-03-08T04:40:27;34.30;;;21.67;;
5754;SDS011;2902;42.130;24.732;2024-03-08T04:42:54;36.67;;;21.00;;
5754;SDS011;2902;42.130;24.732;2024-03-08T04:45:20;33.00;;;21.47;;
5754;SDS011;2902;42.130;24.732;2024-03-08T04:47:47;38.17;;;20.80;;
5754;SDS011;2902;42.130;24.732;2024-03-08T04:50:14;38.63;;;21.47;;
5754;SDS011;2902;42.130;24.732;2024-03-08T04:52:41;36.43;;;21.40;;
5754;SDS011;2902;42.130;24.732;2024-03-08T04:55:08;34.20;;;19.30;;
5754;SDS011;2902;42.130;24.732;2024-03-08T04:57:36;34.50;;;20.90;;
5754;SDS011;2902;42.130;24.732;2024-03-08T05:00:03;30.50;;;19.90;;
5754;SDS011;2902;42.130;24.732;2024-03-08T05:02:36;31.23;;;20.10;;
5754;SDS011;2902;42.130;24.732;2024-03-08T05:05:04;35.00;;;22.30;;
5754;SDS011;2902;42.130;24.732;2024-03-08T05:07:32;34.57;;;20.20;;
5754;SDS011;2902;42.130;24.732;2024-03-08T05:09:59;30.80;;;20.73;;
5754;SDS011;2902;42.130;24.732;2024-03-08T05:12:25;34.30;;;21.33;;
5754;SDS011;2902;42.130;24.732;2024-03-08T05:14:53;33.93;;;20.67;;
5754;SDS011;2902;42.130;24.732;2024-03-08T05:17:20;29.17;;;20.97;;
5754;SDS011;2902;42.130;24.732;2024-03-08T05:19:49;34.07;;;20.40;;
5754;SDS011;2902;42.130;24.732;2024-03-08T05:22:15;33.73;;;20.33;;
5754;SDS011;2902;42.130;24.732;2024-03-08T05:24:42;33.43;;;21.67;;
5754;SDS011;2902;42.130;24.732;2024-03-08T05:27:09;34.30;;;21.33;;
5754;SDS011;2902;42.130;24.732;2024-03-08T05:29:36;31.23;;;20.50;;
5754;SDS011;2902;42.130;24.732;2024-03-08T05:32:04;32.20;;;21.87;;
5754;SDS011;2902;42.130;24.732;2024-03-08T05:34:32;34.37;;;22.90;;
5754;SDS011;2902;42.130;24.732;2024-03-08T05:36:58;37.00;;;23.37;;
5754;SDS011;2902;42.130;24.732;2024-03-08T05:39:26;35.60;;;23.43;;
5754;SDS011;2902;42.130;24.732;2024-03-08T05:41:53;37.30;;;23.30;;
5754;SDS011;2902;42.130;24.732;2024-03-08T05:44:21;31.13;;;22.13;;
5754;SDS011;2902;42.130;24.732;2024-03-08T05:46:48;29.00;;;20.20;;
5754;SDS011;2902;42.130;24.732;2024-03-08T05:49:17;39.73;;;23.50;;
5754;SDS011;2902;42.130;24.732;2024-03-08T05:51:43;37.20;;;24.03;;
5754;SDS011;2902;42.130;24.732;2024-03-08T05:54:12;37.27;;;23.53;;
5754;SDS011;2902;42.130;24.732;2024-03-08T05:56:39;47.83;;;28.23;;
5754;SDS011;2902;42.130;24.732;2024-03-08T05:59:07;34.97;;;24.07;;
5754;SDS011;2902;42.130;24.732;2024-03-08T06:01:34;41.27;;;29.77;;
5754;SDS011;2902;42.130;24.732;2024-03-08T06:04:02;83.77;;;47.40;;
5754;SDS011;2902;42.130;24.732;2024-03-08T06:06:30;51.23;;;33.73;;
5754;SDS011;2902;42.130;24.732;2024-03-08T06:08:57;43.37;;;28.33;;
5754;SDS011;2902;42.130;24.732;2024-03-08T06:11:25;35.50;;;28.33;;
5754;SDS011;2902;42.130;24.732;2024-03-08T06:13:53;38.17;;;23.83;;
5754;SDS011;2902;42.130;24.732;2024-03-08T06:16:24;40.33;;;24.27;;
5754;SDS011;2902;42.130;24.732;2024-03-08T06:18:54;40.33;;;23.93;;
5754;SDS011;2902;42.130;24.732;2024-03-08T06:21:22;35.83;;;22.97;;
5754;SDS011;2902;42.130;24.732;2024-03-08T06:23:52;31.83;;;24.17;;
5754;SDS011;2902;42.130;24.732;2024-03-08T06:26:19;36.93;;;24.83;;
5754;SDS011;2902;42.130;24.732;2024-03-08T06:28:47;48.37;;;26.87;;
5754;SDS011;2902;42.130;24.732;2024-03-08T06:31:13;37.17;;;24.23;;
5754;SDS011;2902;42.130;24.732;2024-03-08T06:33:41;39.03;;;24.10;;
5754;SDS011;2902;42.130;24.732;2024-03-08T06:36:08;36.60;;;23.67;;
5754;SDS011;2902;42.130;24.732;2024-03-08T06:38:36;39.60;;;23.93;;
5754;SDS011;2902;42.130;24.732;2024-03-08T06:41:08;51.67;;;27.83;;
5754;SDS011;2902;42.130;24.732;2024-03-08T06:43:40;38.47;;;23.97;;
5754;SDS011;2902;42.130;24.732;2024-03-08T06:46:07;40.67;;;25.87;;
5754;SDS011;2902;42.130;24.732;2024-03-08T06:48:34;37.50;;;25.43;;
5754;SDS011;2902;42.130;24.732;2024-03-08T06:51:02;38.07;;;24.67;;
5754;SDS011;2902;42.130;24.732;2024-03-08T06:53:30;34.47;;;23.33;;
5754;SDS011;2902;42.130;24.732;2024-03-08T06:55:56;42.00;;;25.23;;
5754;SDS011;2902;42.130;24.732;2024-03-08T06:58:25;38.90;;;26.07;;
5754;SDS011;2902;42.130;24.732;2024-03-08T07:00:52;49.43;;;30.33;;
5754;SDS011;2902;42.130;24.732;2024-03-08T07:03:20;48.63;;;25.93;;
5754;SDS011;2902;42.130;24.732;2024-03-08T07:05:47;45.53;;;25.83;;
5754;SDS011;2902;42.130;24.732;2024-03-08T07:08:14;38.43;;;23.60;;
5754;SDS011;2902;42.130;24.732;2024-03-08T07:10:41;33.77;;;23.17;;
5754;SDS011;2902;42.130;24.732;2024-03-08T07:13:10;38.27;;;24.33;;
5754;SDS011;2902;42.130;24.732;2024-03-08T07:15:38;39.10;;;23.07;;
5754;SDS011;2902;42.130;24.732;2024-03-08T07:18:05;38.90;;;24.17;;
5754;SDS011;2902;42.130;24.732;2024-03-08T07:20:34;39.63;;;24.83;;
5754;SDS011;2902;42.130;24.732;2024-03-08T07:23:02;37.20;;;24.03;;
5754;SDS011;2902;42.130;24.732;2024-03-08T07:25:30;30.13;;;22.07;;
5754;SDS011;2902;42.130;24.732;2024-03-08T07:27:56;36.80;;;22.80;;
5754;SDS011;2902;42.130;24.732;2024-03-08T07:30:24;51.63;;;29.33;;
5754;SDS011;2902;42.130;24.732;2024-03-08T07:33:10;34.33;;;22.50;;
5754;SDS011;2902;42.130;24.732;2024-03-08T07:35:38;37.73;;;24.33;;
5754;SDS011;2902;42.130;24.732;2024-03-08T07:38:05;37.17;;;25.07;;
5754;SDS011;2902;42.130;24.732;2024-03-08T07:40:34;39.83;;;23.53;;
5754;SDS011;2902;42.130;24.732;2024-03-08T07:43:01;36.37;;;24.47;;
5754;SDS011;2902;42.130;24.732;2024-03-08T07:45:28;39.17;;;25.63;;
5754;SDS011;2902;42.130;24.732;2024-03-08T07:47:55;37.00;;;22.87;;
5754;SDS011;2902;42.130;24.732;2024-03-08T07:50:23;42.97;;;24.87;;
5754;SDS011;2902;42.130;24.732;2024-03-08T07:52:50;37.37;;;23.30;;
5754;SDS011;2902;42.130;24.732;2024-03-08T07:55:17;39.60;;;24.37;;
5754;SDS011;2902;42.130;24.732;2024-03-08T07:57:44;34.83;;;24.10;;
5754;SDS011;2902;42.130;24.732;2024-03-08T08:00:13;37.07;;;24.17;;
5754;SDS011;2902;42.130;24.732;2024-03-08T08:02:42;37.67;;;23.90;;
5754;SDS011;2902;42.130;24.732;2024-03-08T08:05:10;34.33;;;23.37;;
5754;SDS011;2902;42.130;24.732;2024-03-08T08:07:38;35.47;;;22.23;;
5754;SDS011;2902;42.130;24.732;2024-03-08T08:10:08;33.20;;;21.67;;
5754;SDS011;2902;42.130;24.732;2024-03-08T08:12:41;34.23;;;21.57;;
5754;SDS011;2902;42.130;24.732;2024-03-08T08:15:08;36.37;;;22.80;;
5754;SDS011;2902;42.130;24.732;2024-03-08T08:17:35;35.27;;;20.20;;
5754;SDS011;2902;42.130;24.732;2024-03-08T08:20:04;34.13;;;22.50;;
5754;SDS011;2902;42.130;24.732;2024-03-08T08:22:31;30.20;;;21.13;;
5754;SDS011;2902;42.130;24.732;2024-03-08T08:24:59;32.13;;;20.67;;
5754;SDS011;2902;42.130;24.732;2024-03-08T08:27:27;35.23;;;21.73;;
5754;SDS011;2902;42.130;24.732;2024-03-08T08:29:53;34.17;;;21.30;;
5754;SDS011;2902;42.130;24.732;2024-03-08T08:32:21;31.57;;;20.70;;
5754;SDS011;2902;42.130;24.732;2024-03-08T08:34:47;26.63;;;18.30;;
5754;SDS011;2902;42.130;24.732;2024-03-08T08:37:14;25.30;;;18.20;;
5754;SDS011;2902;42.130;24.732;2024-03-08T08:39:41;33.03;;;21.53;;
5754;SDS011;2902;42.130;24.732;2024-03-08T08:42:09;28.97;;;20.90;;
5754;SDS011;2902;42.130;24.732;2024-03-08T08:44:36;28.17;;;19.37;;
5754;SDS011;2902;42.130;24.732;2024-03-08T08:47:03;31.03;;;20.10;;
5754;SDS011;2902;42.130;24.732;2024-03-08T08:49:29;28.60;;;19.77;;
5754;SDS011;2902;42.130;24.732;2024-03-08T08:51:56;32.83;;;19.73;;
5754;SDS011;2902;42.130;24.732;2024-03-08T08:54:24;31.20;;;19.57;;
5754;SDS011;2902;42.130;24.732;2024-03-08T08:56:52;25.43;;;17.60;;
5754;SDS011;2902;42.130;24.732;2024-03-08T08:59:21;24.73;;;17.03;;
5754;SDS011;2902;42.130;24.732;2024-03-08T09:01:50;22.40;;;17.63;;
5754;SDS011;2902;42.130;24.732;2024-03-08T09:04:18;25.40;;;17.00;;
5754;SDS011;2902;42.130;24.732;2024-03-08T09:06:46;26.00;;;16.87;;
5754;SDS011;2902;42.130;24.732;2024-03-08T09:09:13;23.17;;;18.20;;
5754;SDS011;2902;42.130;24.732;2024-03-08T09:11:42;23.50;;;17.67;;
5754;SDS011;2902;42.130;24.732;2024-03-08T09:14:08;23.60;;;17.27;;
5754;SDS011;2902;42.130;24.732;2024-03-08T09:16:38;21.80;;;16.80;;
5754;SDS011;2902;42.130;24.732;2024-03-08T09:19:05;19.60;;;15.37;;
5754;SDS011;2902;42.130;24.732;2024-03-08T09:21:32;19.60;;;15.97;;
5754;SDS011;2902;42.130;24.732;2024-03-08T09:23:59;19.43;;;14.57;;
5754;SDS011;2902;42.130;24.732;2024-03-08T09:26:26;19.67;;;15.20;;
5754;SDS011;2902;42.130;24.732;2024-03-08T09:28:53;21.23;;;17.17;;
5754;SDS011;2902;42.130;24.732;2024-03-08T09:31:21;20.27;;;15.03;;
5754;SDS011;2902;42.130;24.732;2024-03-08T09:33:49;16.17;;;14.13;;
5754;SDS011;2902;42.130;24.732;2024-03-08T09:36:15;26.83;;;20.33;;
5754;SDS011;2902;42.130;24.732;2024-03-08T09:38:42;24.30;;;18.83;;
5754;SDS011;2902;42.130;24.732;2024-03-08T09:41:09;18.03;;;13.70;;
5754;SDS011;2902;42.130;24.732;2024-03-08T09:43:37;20.83;;;12.70;;
5754;SDS011;2902;42.130;24.732;2024-03-08T09:46:04;15.23;;;13.10;;
5754;SDS011;2902;42.130;24.732;2024-03-08T09:48:33;18.40;;;14.10;;
5754;SDS011;2902;42.130;24.732;2024-03-08T09:51:02;14.83;;;13.00;;
5754;SDS011;2902;42.130;24.732;2024-03-08T09:53:29;17.20;;;13.40;;
5754;SDS011;2902;42.130;24.732;2024-03-08T09:55:56;20.90;;;14.37;;
5754;SDS011;2902;42.130;24.732;2024-03-08T09:58:24;17.00;;;13.50;;
5754;SDS011;2902;42.130;24.732;2024-03-08T10:01:18;18.73;;;14.77;;
5754;SDS011;2902;42.130;24.732;2024-03-08T10:03:46;32.37;;;24.87;;
5754;SDS011;2902;42.130;24.732;2024-03-08T10:06:15;17.77;;;13.57;;
5754;SDS011;2902;42.130;24.732;2024-03-08T10:08:42;14.97;;;13.33;;
5754;SDS011;2902;42.130;24.732;2024-03-08T10:11:10;15.60;;;13.03;;
5754;SDS011;2902;42.130;24.732;2024-03-08T10:13:37;14.37;;;12.80;;
5754;SDS011;2902;42.130;24.732;2024-03-08T10:16:05;14.37;;;11.70;;
5754;SDS011;2902;42.130;24.732;2024-03-08T10:18:32;19.37;;;14.40;;
5754;SDS011;2902;42.130;24.732;2024-03-08T10:21:02;21.90;;;16.37;;
5754;SDS011;2902;42.130;24.732;2024-03-08T10:23:31;15.23;;;12.40;;
5754;SDS011;2902;42.130;24.732;2024-03-08T10:26:09;17.97;;;13.10;;
5754;SDS011;2902;42.130;24.732;2024-03-08T10:28:36;14.30;;;12.17;;
5754;SDS011;2902;42.130;24.732;2024-03-08T10:31:03;17.37;;;13.23;;
5754;SDS011;2902;42.130;24.732;2024-03-08T10:33:31;29.10;;;20.80;;
5754;SDS011;2902;42.130;24.732;2024-03-08T10:35:58;17.80;;;14.30;;
5754;SDS011;2902;42.130;24.732;2024-03-08T10:38:26;19.97;;;14.40;;
5754;SDS011;2902;42.130;24.732;2024-03-08T10:40:54;15.80;;;11.73;;
5754;SDS011;2902;42.130;24.732;2024-03-08T10:43:22;15.60;;;13.60;;
5754;SDS011;2902;42.130;24.732;2024-03-08T10:45:56;16.30;;;12.57;;
5754;SDS011;2902;42.130;24.732;2024-03-08T10:48:30;13.53;;;12.13;;
5754;SDS011;2902;42.130;24.732;2024-03-08T10:50:58;19.93;;;12.93;;
5754;SDS011;2902;42.130;24.732;2024-03-08T10:53:26;20.93;;;15.63;;
5754;SDS011;2902;42.130;24.732;2024-03-08T10:55:55;17.77;;;13.00;;
5754;SDS011;2902;42.130;24.732;2024-03-08T10:58:23;16.57;;;13.10;;
5754;SDS011;2902;42.130;24.732;2024-03-08T11:00:52;15.43;;;11.93;;
5754;SDS011;2902;42.130;24.732;2024-03-08T11:06:13;16.73;;;11.27;;
5754;SDS011;2902;42.130;24.732;2024-03-08T11:08:42;14.23;;;12.00;;
5754;SDS011;2902;42.130;24.732;2024-03-08T11:13:55;17.50;;;13.10;;
5754;SDS011;2902;42.130;24.732;2024-03-08T11:16:38;13.97;;;12.47;;
5754;SDS011;2902;42.130;24.732;2024-03-08T11:19:26;14.80;;;12.00;;
5754;SDS011;2902;42.130;24.732;2024-03-08T11:22:00;17.87;;;13.63;;
5754;SDS011;2902;42.130;24.732;2024-03-08T11:24:28;42.73;;;20.27;;
5754;SDS011;2902;42.130;24.732;2024-03-08T11:27:04;20.90;;;14.73;;
5754;SDS011;2902;42.130;24.732;2024-03-08T11:29:35;17.40;;;12.37;;
5754;SDS011;2902;42.130;24.732;2024-03-08T11:32:05;14.57;;;11.43;;
5754;SDS011;2902;42.130;24.732;2024-03-08T11:34:33;12.43;;;10.23;;
5754;SDS011;2902;42.130;24.732;2024-03-08T11:37:01;12.27;;;10.67;;
5754;SDS011;2902;42.130;24.732;2024-03-08T11:39:30;12.53;;;10.50;;
5754;SDS011;2902;42.130;24.732;2024-03-08T11:41:57;12.17;;;10.63;;
5754;SDS011;2902;42.130;24.732;2024-03-08T11:44:27;14.50;;;10.73;;
5754;SDS011;2902;42.130;24.732;2024-03-08T11:46:56;10.37;;;9.47;;
5754;SDS011;2902;42.130;24.732;2024-03-08T11:49:23;11.23;;;9.23;;
5754;SDS011;2902;42.130;24.732;2024-03-08T11:51:51;9.90;;;9.00;;
5754;SDS011;2902;42.130;24.732;2024-03-08T11:54:18;10.33;;;8.83;;
5754;SDS011;2902;42.130;24.732;2024-03-08T11:56:46;7.83;;;7.20;;
5754;SDS011;2902;42.130;24.732;2024-03-08T11:59:13;16.30;;;10.40;;
5754;SDS011;2902;42.130;24.732;2024-03-08T12:01:41;16.13;;;11.63;;
5754;SDS011;2902;42.130;24.732;2024-03-08T12:04:11;12.40;;;11.10;;
5754;SDS011;2902;42.130;24.732;2024-03-08T12:06:39;11.63;;;9.63;;
5754;SDS011;2902;42.130;24.732;2024-03-08T12:09:09;13.83;;;10.23;;
5754;SDS011;2902;42.130;24.732;2024-03-08T12:11:36;8.27;;;7.67;;
5754;SDS011;2902;42.130;24.732;2024-03-08T12:14:03;9.90;;;8.87;;
5754;SDS011;2902;42.130;24.732;2024-03-08T12:16:31;12.80;;;10.13;;
5754;SDS011;2902;42.130;24.732;2024-03-08T12:19:00;12.50;;;10.10;;
5754;SDS011;2902;42.130;24.732;2024-03-08T12:21:31;19.50;;;11.00;;
5754;SDS011;2902;42.130;24.732;2024-03-08T12:24:03;11.87;;;9.90;;
5754;SDS011;2902;42.130;24.732;2024-03-08T12:26:34;12.33;;;9.90;;
5754;SDS011;2902;42.130;24.732;2024-03-08T12:29:14;10.10;;;9.17;;
5754;SDS011;2902;42.130;24.732;2024-03-08T12:31:42;9.83;;;8.83;;
5754;SDS011;2902;42.130;24.732;2024-03-08T12:34:11;14.47;;;10.17;;
5754;SDS011;2902;42.130;24.732;2024-03-08T12:36:43;10.23;;;9.23;;
5754;SDS011;2902;42.130;24.732;2024-03-08T12:39:12;16.37;;;10.60;;
5754;SDS011;2902;42.130;24.732;2024-03-08T12:41:41;13.37;;;11.37;;
5754;SDS011;2902;42.130;24.732;2024-03-08T12:44:08;13.97;;;10.67;;
5754;SDS011;2902;42.130;24.732;2024-03-08T12:46:36;11.83;;;10.57;;
5754;SDS011;2902;42.130;24.732;2024-03-08T12:49:06;11.47;;;9.63;;
5754;SDS011;2902;42.130;24.732;2024-03-08T12:51:35;12.30;;;9.77;;
5754;SDS011;2902;42.130;24.732;2024-03-08T12:54:03;17.27;;;10.10;;
5754;SDS011;2902;42.130;24.732;2024-03-08T12:56:32;13.90;;;10.27;;
5754;SDS011;2902;42.130;24.732;2024-03-08T12:59:00;14.13;;;10.57;;
5754;SDS011;2902;42.130;24.732;2024-03-08T13:01:28;13.67;;;9.83;;
5754;SDS011;2902;42.130;24.732;2024-03-08T13:03:55;13.23;;;9.73;;
5754;SDS011;2902;42.130;24.732;2024-03-08T13:06:22;14.53;;;10.70;;
5754;SDS011;2902;42.130;24.732;2024-03-08T13:08:51;10.70;;;9.43;;
5754;SDS011;2902;42.130;24.732;2024-03-08T13:11:20;11.73;;;9.57;;
5754;SDS011;2902;42.130;24.732;2024-03-08T13:13:48;11.33;;;9.37;;
5754;SDS011;2902;42.130;24.732;2024-03-08T13:16:15;13.43;;;8.40;;
5754;SDS011;2902;42.130;24.732;2024-03-08T13:18:44;9.10;;;8.27;;
5754;SDS011;2902;42.130;24.732;2024-03-08T13:21:13;9.10;;;8.20;;
5754;SDS011;2902;42.130;24.732;2024-03-08T13:23:43;8.97;;;8.17;;
5754;SDS011;2902;42.130;24.732;2024-03-08T13:26:12;9.10;;;8.20;;
5754;SDS011;2902;42.130;24.732;2024-03-08T13:28:40;9.90;;;8.73;;
5754;SDS011;2902;42.130;24.732;2024-03-08T13:31:07;11.13;;;8.03;;
5754;SDS011;2902;42.130;24.732;2024-03-08T13:33:35;10.77;;;8.63;;
5754;SDS011;2902;42.130;24.732;2024-03-08T13:36:04;9.13;;;7.73;;
5754;SDS011;2902;42.130;24.732;2024-03-08T13:38:31;9.67;;;7.77;;
5754;SDS011;2902;42.130;24.732;2024-03-08T13:40:59;12.83;;;7.87;;
5754;SDS011;2902;42.130;24.732;2024-03-08T13:43:27;8.60;;;7.90;;
5754;SDS011;2902;42.130;24.732;2024-03-08T13:45:54;8.93;;;7.83;;
5754;SDS011;2902;42.130;24.732;2024-03-08T13:48:21;9.30;;;8.23;;
5754;SDS011;2902;42.130;24.732;2024-03-08T13:50:48;9.40;;;8.40;;
5754;SDS011;2902;42.130;24.732;2024-03-08T13:53:16;12.10;;;7.60;;
5754;SDS011;2902;42.130;24.732;2024-03-08T13:55:43;8.87;;;8.03;;
5754;SDS011;2902;42.130;24.732;2024-03-08T13:58:10;17.60;;;7.73;;
5754;SDS011;2902;42.130;24.732;2024-03-08T14:00:40;8.00;;;6.63;;
5754;SDS011;2902;42.130;24.732;2024-03-08T14:03:09;7.97;;;7.27;;
5754;SDS011;2902;42.130;24.732;2024-03-08T14:05:38;11.60;;;7.10;;
5754;SDS011;2902;42.130;24.732;2024-03-08T14:08:06;10.23;;;7.43;;
5754;SDS011;2902;42.130;24.732;2024-03-08T14:10:33;13.63;;;7.77;;
5754;SDS011;2902;42.130;24.732;2024-03-08T14:13:02;11.37;;;7.13;;
5754;SDS011;2902;42.130;24.732;2024-03-08T14:15:30;8.53;;;7.00;;
5754;SDS011;2902;42.130;24.732;2024-03-08T14:17:58;7.63;;;6.93;;
5754;SDS011;2902;42.130;24.732;2024-03-08T14:20:26;8.80;;;7.50;;
5754;SDS011;2902;42.130;24.732;2024-03-08T14:22:53;8.50;;;7.70;;
5754;SDS011;2902;42.130;24.732;2024-03-08T14:25:21;8.93;;;8.13;;
5754;SDS011;2902;42.130;24.732;2024-03-08T14:27:48;14.37;;;8.50;;
5754;SDS011;2902;42.130;24.732;2024-03-08T14:30:18;9.23;;;8.43;;
5754;SDS011;2902;42.130;24.732;2024-03-08T14:32:58;11.80;;;8.33;;
5754;SDS011;2902;42.130;24.732;2024-03-08T14:35:25;10.30;;;8.70;;
5754;SDS011;2902;42.130;24.732;2024-03-08T14:37:52;9.93;;;9.03;;
5754;SDS011;2902;42.130;24.732;2024-03-08T14:40:19;14.20;;;10.47;;
5754;SDS011;2902;42.130;24.732;2024-03-08T14:42:47;9.73;;;8.70;;
5754;SDS011;2902;42.130;24.732;2024-03-08T14:45:14;16.33;;;9.97;;
5754;SDS011;2902;42.130;24.732;2024-03-08T14:47:41;11.90;;;9.10;;
5754;SDS011;2902;42.130;24.732;2024-03-08T14:50:10;10.70;;;9.67;;
5754;SDS011;2902;42.130;24.732;2024-03-08T14:52:37;9.57;;;8.83;;